Beech Grove, Arkansas
Current Conditions -  °F | °C
As of 2:35 AM on Friday 19 Dec 2014 (Local Time) from K4M9 Reporting Station
Haze Haze  
Wind Chill: 31°   Ceiling: 4300
Heat Index: 37°   Visibility: 6mi
Dew Point: 34°   Wind: 9mph
Humidity: 87%   Direction: 40°NE
Pressure: 30.26"   Gusts: NA
Location:  36.17°N, 90.61°W
Report Text: K4M9 190835Z AUTO 04008KT 6SM BR OVC043 03/01 A3026 RMK AO2
Loading
Personal Weather Stations






























Interactive Weather Map New forecast layout! Learn more

10-Day Weather Forecast

Advertisements
Track Severe Weather on mobile